Time;durP1;ratioP1;P1;durP2;ratioP2;P2;SDS_P1;SDS_P2;PMS_P1;PMS_P2;Temp;Humidity;BMP_temperature;BMP_pressure;BME280_temperature;BME280_humidity;BME280_pressure;Samples;Min_cycle;Max_cycle;Signal;HPM_P1;HPM_P2
2022/01/04 00:01:16;;;;;;;1.77;1.67;;;12.40;99.90;;;;;;6104525;29;20032;-80
2022/01/04 00:04:17;;;;;;;1.65;1.52;;;12.40;99.90;;;;;;6119843;29;20043;-82
2022/01/04 00:07:17;;;;;;;2.88;1.80;;;12.50;99.90;;;;;;6071936;29;20122;-80
2022/01/04 00:10:21;;;;;;;1.60;1.50;;;12.30;99.90;;;;;;6126160;29;20031;-79
2022/01/04 00:13:25;;;;;;;1.55;1.45;;;12.30;99.90;;;;;;6124613;29;20066;-80
2022/01/04 00:16:25;;;;;;;2.20;1.70;;;12.20;99.90;;;;;;6124857;29;20102;-81
2022/01/04 00:19:26;;;;;;;2.47;1.77;;;12.10;99.90;;;;;;6108647;29;20040;-79
2022/01/04 00:22:26;;;;;;;1.83;1.73;;;12.10;99.90;;;;;;6107660;29;20431;-80
2022/01/04 00:25:27;;;;;;;2.75;2.20;;;12.00;99.90;;;;;;6124658;29;20462;-81
2022/01/04 00:28:27;;;;;;;3.38;1.95;;;12.10;99.90;;;;;;6092624;29;20031;-80
2022/01/04 00:31:28;;;;;;;2.40;2.15;;;12.00;99.90;;;;;;6124103;29;20036;-79
2022/01/04 00:34:29;;;;;;;2.88;2.00;;;12.10;99.90;;;;;;6107623;29;20038;-80
2022/01/04 00:37:29;;;;;;;2.50;1.90;;;12.10;99.90;;;;;;6108761;29;20044;-82
2022/01/04 00:40:31;;;;;;;2.28;1.65;;;;;;;;;;6123711;29;20206;-80
2022/01/04 00:43:32;;;;;;;2.42;2.10;;;12.10;99.90;;;;;;6124141;29;20467;-80
2022/01/04 00:46:32;;;;;;;2.25;2.03;;;12.10;99.90;;;;;;6122705;29;20537;-81
2022/01/04 00:49:33;;;;;;;2.58;2.38;;;12.10;99.90;;;;;;6125010;29;20031;-79
2022/01/04 00:52:34;;;;;;;2.53;2.13;;;12.20;99.90;;;;;;6107156;29;20486;-80
2022/01/04 00:55:34;;;;;;;4.25;2.63;;;12.20;99.90;;;;;;6125074;29;20043;-81
2022/01/04 00:58:35;;;;;;;3.58;2.70;;;12.30;99.90;;;;;;6107192;29;20517;-79
2022/01/04 01:01:36;;;;;;;3.40;2.78;;;12.40;99.90;;;;;;6106935;29;20038;-80
2022/01/04 01:04:36;;;;;;;2.92;2.35;;;12.40;99.90;;;;;;6123906;29;20076;-81
2022/01/04 01:07:37;;;;;;;4.45;3.10;;;12.50;99.90;;;;;;6107366;29;20039;-81
2022/01/04 01:10:47;;;;;;;3.45;2.40;;;12.40;99.90;;;;;;6122436;29;20028;-80
2022/01/04 01:13:48;;;;;;;4.10;2.55;;;12.80;99.90;;;;;;6125015;29;20051;-82
2022/01/04 01:16:48;;;;;;;5.65;3.10;;;12.70;99.90;;;;;;6107066;29;20043;-81
2022/01/04 01:19:49;;;;;;;3.65;2.75;;;12.70;99.90;;;;;;6105828;29;20058;-82
2022/01/04 01:22:50;;;;;;;3.70;2.97;;;;;;;;;;6123781;29;20040;-81
2022/01/04 01:25:51;;;;;;;2.80;2.50;;;;;;;;;;6124590;29;20455;-82
2022/01/04 01:28:52;;;;;;;3.72;2.83;;;12.90;99.90;;;;;;6123255;29;20035;-79
2022/01/04 01:31:53;;;;;;;5.88;2.65;;;;;;;;;;6123493;29;20035;-80
2022/01/04 01:34:54;;;;;;;3.17;2.65;;;;;;;;;;6123759;29;20042;-81
2022/01/04 01:37:55;;;;;;;3.08;2.55;;;;;;;;;;6121749;29;20048;-80
2022/01/04 01:40:55;;;;;;;4.20;2.70;;;12.80;99.90;;;;;;6123143;29;20023;-82
2022/01/04 01:43:56;;;;;;;4.05;2.83;;;12.70;99.90;;;;;;6122439;29;20078;-80
2022/01/04 01:46:57;;;;;;;4.22;2.53;;;12.80;99.90;;;;;;6105893;29;20043;-82
2022/01/04 01:49:57;;;;;;;2.70;2.30;;;12.80;99.90;;;;;;6121619;29;20036;-82
2022/01/04 01:52:58;;;;;;;2.88;2.20;;;12.80;99.90;;;;;;6106401;29;20044;-80
2022/01/04 01:55:58;;;;;;;4.70;2.55;;;12.90;99.90;;;;;;6090665;29;20031;-81
2022/01/04 01:58:59;;;;;;;3.10;2.35;;;12.90;99.90;;;;;;6122211;29;20127;-80
2022/01/04 02:02:00;;;;;;;2.97;2.50;;;12.90;99.90;;;;;;6106898;29;20031;-80
2022/01/04 02:05:01;;;;;;;2.35;2.10;;;12.90;99.90;;;;;;6090083;29;20044;-82
2022/01/04 02:08:03;;;;;;;3.90;2.70;;;12.90;99.90;;;;;;6121493;29;20047;-80
2022/01/04 02:11:03;;;;;;;3.60;2.50;;;13.00;99.90;;;;;;6121377;29;20067;-81
2022/01/04 02:14:04;;;;;;;3.00;2.47;;;12.80;99.90;;;;;;6106491;29;20138;-82
2022/01/04 02:17:04;;;;;;;4.18;2.28;;;12.90;99.90;;;;;;6122280;29;20044;-80
2022/01/04 02:20:06;;;;;;;3.08;2.42;;;13.00;99.90;;;;;;6105539;29;20082;-81
2022/01/04 02:23:07;;;;;;;5.10;2.70;;;13.00;99.90;;;;;;6105402;29;20047;-80
2022/01/04 02:26:07;;;;;;;3.80;2.50;;;13.00;99.90;;;;;;6105008;29;20124;-81
2022/01/04 02:29:08;;;;;;;2.78;2.47;;;12.90;99.90;;;;;;6105117;29;20050;-80
2022/01/04 02:32:08;;;;;;;2.58;2.30;;;13.00;99.90;;;;;;6102882;29;20039;-82
2022/01/04 02:35:10;;;;;;;3.42;2.20;;;13.00;99.90;;;;;;6088872;29;20100;-81
2022/01/04 02:38:11;;;;;;;2.87;2.40;;;13.00;99.90;;;;;;6105525;29;20047;-82
2022/01/04 02:41:11;;;;;;;2.80;2.35;;;12.90;99.90;;;;;;6105758;29;20110;-81
2022/01/04 02:44:12;;;;;;;3.30;2.20;;;13.00;99.90;;;;;;6120042;29;20055;-80
2022/01/04 02:47:12;;;;;;;2.88;2.20;;;12.90;99.90;;;;;;6105372;29;20038;-79
2022/01/04 02:50:13;;;;;;;3.95;2.30;;;12.80;99.90;;;;;;6088428;29;20079;-80
2022/01/04 02:53:14;;;;;;;2.35;2.15;;;12.90;99.90;;;;;;6122043;29;20024;-81
2022/01/04 02:56:14;;;;;;;2.28;2.08;;;13.00;99.90;;;;;;6120835;29;20053;-79
2022/01/04 02:59:15;;;;;;;4.40;2.30;;;13.00;99.90;;;;;;6123156;29;20063;-80
2022/01/04 03:02:16;;;;;;;3.67;2.53;;;13.00;99.90;;;;;;6121358;29;20394;-80
2022/01/04 03:05:17;;;;;;;2.42;2.22;;;13.00;99.90;;;;;;6120676;29;20035;-80
2022/01/04 03:08:17;;;;;;;2.92;2.30;;;13.00;99.90;;;;;;6121015;29;20419;-81
2022/01/04 03:11:18;;;;;;;3.92;2.30;;;13.00;99.90;;;;;;6121645;29;20486;-81
2022/01/04 03:14:18;;;;;;;5.05;2.40;;;13.10;99.90;;;;;;6105590;29;20035;-81
2022/01/04 03:17:19;;;;;;;2.28;1.95;;;13.00;99.90;;;;;;6120684;29;20052;-80
2022/01/04 03:20:19;;;;;;;2.45;2.15;;;13.10;99.90;;;;;;6121636;29;20446;-80
2022/01/04 03:23:20;;;;;;;2.80;2.40;;;13.00;99.90;;;;;;6104986;29;20154;-81
2022/01/04 03:26:21;;;;;;;2.05;1.85;;;13.00;99.90;;;;;;6104326;29;20039;-80
2022/01/04 03:29:21;;;;;;;4.35;2.40;;;13.00;99.90;;;;;;6120736;29;20059;-80
2022/01/04 03:32:22;;;;;;;2.30;2.10;;;12.90;99.90;;;;;;6120389;29;20144;-81
2022/01/04 03:35:23;;;;;;;2.60;2.20;;;12.90;99.90;;;;;;6104634;29;20035;-80
2022/01/04 03:38:23;;;;;;;2.55;1.98;;;12.80;99.90;;;;;;6104355;29;20550;-82
2022/01/04 03:41:25;;;;;;;2.40;2.03;;;12.80;99.90;;;;;;6120888;29;20032;-82
2022/01/04 03:44:26;;;;;;;2.60;2.40;;;12.70;99.90;;;;;;6108133;29;20439;-82
2022/01/04 03:47:27;;;;;;;2.25;2.05;;;12.60;99.90;;;;;;6125733;29;20043;-81
2022/01/04 03:50:28;;;;;;;2.00;1.80;;;12.70;99.90;;;;;;6124809;29;20027;-80
2022/01/04 03:53:28;;;;;;;1.95;1.63;;;12.60;99.90;;;;;;6126051;29;20083;-82
2022/01/04 03:56:29;;;;;;;5.15;2.28;;;12.60;99.90;;;;;;6109322;29;20047;-81
2022/01/04 03:59:30;;;;;;;4.18;1.88;;;12.40;99.90;;;;;;6107756;29;20508;-82
2022/01/04 04:02:30;;;;;;;2.47;1.88;;;12.30;99.90;;;;;;6125841;29;20067;-81
2022/01/04 04:05:31;;;;;;;2.30;2.10;;;12.10;99.90;;;;;;6125617;29;20538;-81
2022/01/04 04:08:31;;;;;;;2.15;1.98;;;12.00;99.90;;;;;;6107382;29;20028;-81
2022/01/04 04:11:32;;;;;;;2.83;2.13;;;12.20;99.90;;;;;;6125718;29;20035;-83
2022/01/04 04:14:33;;;;;;;2.80;1.98;;;12.10;99.90;;;;;;6124291;29;20039;-80
2022/01/04 04:17:33;;;;;;;2.20;2.00;;;12.10;99.90;;;;;;6108878;29;20082;-80
2022/01/04 04:20:35;;;;;;;4.65;2.22;;;12.20;99.90;;;;;;6107657;29;20484;-81
2022/01/04 04:23:35;;;;;;;2.97;2.25;;;12.30;99.90;;;;;;6123345;29;20384;-81
2022/01/04 04:26:36;;;;;;;1.88;1.67;;;12.20;99.90;;;;;;6108785;29;20677;-81
2022/01/04 04:29:36;;;;;;;2.58;2.38;;;12.30;99.90;;;;;;6124053;29;20046;-79
2022/01/04 04:32:37;;;;;;;2.05;1.85;;;12.10;99.90;;;;;;6126331;29;20043;-80
2022/01/04 04:35:38;;;;;;;4.32;2.50;;;12.30;99.90;;;;;;6107322;29;20047;-80
2022/01/04 04:38:38;;;;;;;1.98;1.85;;;12.40;99.90;;;;;;6122958;29;20031;-81
2022/01/04 04:41:39;;;;;;;3.15;2.00;;;12.20;99.90;;;;;;6108649;29;20031;-80
2022/01/04 04:44:39;;;;;;;2.58;2.00;;;12.10;99.90;;;;;;6124454;29;20035;-79
2022/01/04 04:47:40;;;;;;;2.20;1.98;;;12.30;99.90;;;;;;6124590;29;20039;-80
2022/01/04 04:50:41;;;;;;;2.15;1.65;;;;;;;;;;6125434;29;20118;-80
2022/01/04 04:53:42;;;;;;;2.00;1.90;;;;;;;;;;6123853;29;20032;-79
2022/01/04 04:56:43;;;;;;;2.15;1.95;;;;;;;;;;6122569;29;20075;-79
2022/01/04 04:59:44;;;;;;;3.22;2.17;;;;;;;;;;6125129;29;20024;-80
2022/01/04 05:02:44;;;;;;;2.15;1.77;;;12.20;99.90;;;;;;6123760;29;20097;-80
2022/01/04 05:05:45;;;;;;;2.10;1.83;;;;;;;;;;6123590;29;20054;-80
2022/01/04 05:08:46;;;;;;;4.13;2.00;;;12.40;99.90;;;;;;6123136;29;20066;-79
2022/01/04 05:11:47;;;;;;;2.53;1.80;;;;;;;;;;6125314;29;20035;-80
2022/01/04 05:14:48;;;;;;;1.67;1.58;;;12.40;99.90;;;;;;6122177;29;20024;-80
2022/01/04 05:17:48;;;;;;;1.70;1.60;;;12.80;99.90;;;;;;6108206;29;20055;-80
2022/01/04 05:20:49;;;;;;;1.50;1.38;;;12.40;99.90;;;;;;6123087;29;20055;-80
2022/01/04 05:23:50;;;;;;;2.47;1.65;;;12.50;99.90;;;;;;6107001;29;20039;-80
2022/01/04 05:26:50;;;;;;;2.90;1.90;;;12.50;99.90;;;;;;6122956;29;20051;-80
2022/01/04 05:29:51;;;;;;;2.00;1.77;;;12.60;99.90;;;;;;6106494;29;20098;-80
2022/01/04 05:32:51;;;;;;;1.60;1.50;;;12.60;99.90;;;;;;6107670;29;20032;-80
2022/01/04 05:35:53;;;;;;;3.60;1.80;;;12.60;99.90;;;;;;6106888;29;20051;-80
2022/01/04 05:38:54;;;;;;;2.08;1.65;;;12.60;99.90;;;;;;6091456;29;20038;-80
2022/01/04 05:41:55;;;;;;;2.15;1.95;;;12.70;99.90;;;;;;6106880;29;20024;-81
2022/01/04 05:44:55;;;;;;;2.10;1.92;;;12.70;99.90;;;;;;6123821;29;20482;-81
2022/01/04 05:47:56;;;;;;;1.92;1.80;;;12.90;99.90;;;;;;6122262;29;20042;-80
2022/01/04 05:50:57;;;;;;;3.92;1.58;;;12.90;99.90;;;;;;6122769;29;20112;-80
2022/01/04 05:53:57;;;;;;;1.98;1.65;;;13.00;99.90;;;;;;6107272;29;20398;-79
2022/01/04 05:56:58;;;;;;;2.20;1.90;;;13.00;99.90;;;;;;6106523;29;20055;-81
2022/01/04 05:59:59;;;;;;;2.78;2.00;;;13.00;99.90;;;;;;6122400;29;20107;-80
2022/01/04 06:03:01;;;;;;;1.88;1.55;;;13.00;99.90;;;;;;6122962;29;20032;-80
2022/01/04 06:06:01;;;;;;;2.00;1.70;;;13.20;99.90;;;;;;6106085;29;20415;-80
2022/01/04 06:09:02;;;;;;;1.67;1.52;;;13.30;99.90;;;;;;6120980;29;20287;-80
2022/01/04 06:12:03;;;;;;;2.47;1.60;;;13.40;99.90;;;;;;6122581;29;20434;-82
2022/01/04 06:15:05;;;;;;;3.17;1.73;;;13.60;99.90;;;;;;6077786;29;20043;-82
2022/01/04 06:18:06;;;;;;;1.70;1.60;;;13.60;99.90;;;;;;6122088;29;20094;-80
2022/01/04 06:21:06;;;;;;;2.78;1.80;;;13.70;99.90;;;;;;6122435;29;20043;-80
2022/01/04 06:24:07;;;;;;;1.70;1.48;;;13.90;99.90;;;;;;6121423;29;20095;-80
2022/01/04 06:27:08;;;;;;;2.17;1.60;;;14.00;99.90;;;;;;6106704;29;20047;-80
2022/01/04 06:30:09;;;;;;;1.75;1.60;;;14.00;99.90;;;;;;6106533;29;20387;-80
2022/01/04 06:33:09;;;;;;;4.18;1.70;;;14.10;99.90;;;;;;6121975;29;20046;-80
2022/01/04 06:36:10;;;;;;;1.58;1.48;;;14.20;99.90;;;;;;6122020;29;20505;-80
2022/01/04 06:39:11;;;;;;;2.05;1.35;;;14.30;99.90;;;;;;6121117;29;20036;-80
2022/01/04 06:42:11;;;;;;;2.25;1.70;;;14.30;99.90;;;;;;6104637;29;20067;-80
2022/01/04 06:45:13;;;;;;;3.55;1.80;;;14.50;99.90;;;;;;6105742;29;20050;-79
2022/01/04 06:48:13;;;;;;;1.80;1.63;;;14.50;99.90;;;;;;6121246;29;20035;-81
2022/01/04 06:51:14;;;;;;;1.67;1.58;;;14.70;99.90;;;;;;6120930;29;20087;-81
2022/01/04 06:54:15;;;;;;;2.08;1.88;;;14.70;99.90;;;;;;6122192;29;20028;-80
2022/01/04 06:57:16;;;;;;;2.00;1.83;;;14.70;99.90;;;;;;6102993;29;20478;-83
2022/01/04 07:00:17;;;;;;;1.63;1.52;;;14.70;99.90;;;;;;6104349;29;20035;-80
2022/01/04 07:03:17;;;;;;;2.17;1.83;;;14.80;99.90;;;;;;6121010;29;20031;-79
2022/01/04 07:06:18;;;;;;;2.80;1.92;;;14.80;99.90;;;;;;6118114;29;20039;-82
2022/01/04 07:09:18;;;;;;;1.67;1.58;;;14.80;99.90;;;;;;6119746;29;20032;-79
2022/01/04 07:12:19;;;;;;;2.30;1.70;;;14.90;99.90;;;;;;6122201;29;20175;-80
2022/01/04 07:15:20;;;;;;;3.15;1.92;;;14.90;99.90;;;;;;6120559;29;20074;-79
2022/01/04 07:18:20;;;;;;;2.38;1.67;;;14.80;99.90;;;;;;6123174;29;20032;-80
2022/01/04 07:21:21;;;;;;;1.95;1.52;;;15.10;99.90;;;;;;6107055;29;20048;-81
2022/01/04 07:24:22;;;;;;;2.85;1.83;;;15.30;99.90;;;;;;6122864;29;20114;-80
2022/01/04 07:27:22;;;;;;;4.68;1.83;;;15.00;99.90;;;;;;6124985;29;20043;-81
2022/01/04 07:30:23;;;;;;;3.25;1.60;;;15.10;99.90;;;;;;6124725;29;20040;-80
2022/01/04 07:33:23;;;;;;;2.03;1.83;;;15.10;99.90;;;;;;6124603;29;20087;-80
2022/01/04 07:36:24;;;;;;;2.22;2.03;;;15.10;99.90;;;;;;6123797;29;20490;-82
2022/01/04 07:39:26;;;;;;;3.03;1.80;;;15.00;99.90;;;;;;6108541;29;20028;-82
2022/01/04 07:42:26;;;;;;;1.88;1.75;;;15.00;99.90;;;;;;6107773;29;20095;-79
2022/01/04 07:45:31;;;;;;;2.22;2.03;;;15.00;99.90;;;;;;6120959;29;20043;-80
2022/01/04 07:48:31;;;;;;;1.92;1.70;;;15.10;99.90;;;;;;6121165;29;20513;-81
2022/01/04 07:51:33;;;;;;;2.05;1.88;;;15.00;99.90;;;;;;6090261;29;20047;-81
2022/01/04 07:54:34;;;;;;;2.20;1.83;;;14.90;99.90;;;;;;6106378;29;20078;-79
2022/01/04 07:57:35;;;;;;;3.80;2.00;;;15.00;99.90;;;;;;6105389;29;20040;-78
2022/01/04 08:00:36;;;;;;;6.35;1.70;;;15.00;99.90;;;;;;6124789;29;20111;-79
2022/01/04 08:03:36;;;;;;;2.35;2.15;;;15.00;99.90;;;;;;6122953;29;20036;-78
2022/01/04 08:06:37;;;;;;;3.47;2.40;;;15.00;99.90;;;;;;6123930;29;20040;-81
2022/01/04 08:09:37;;;;;;;3.10;2.10;;;14.80;99.90;;;;;;6104176;29;20127;-78
2022/01/04 08:12:39;;;;;;;2.13;1.92;;;14.90;99.90;;;;;;6124414;29;20086;-78
2022/01/04 08:15:39;;;;;;;2.27;1.83;;;14.70;99.90;;;;;;6107323;29;20051;-78
2022/01/04 08:18:41;;;;;;;3.50;2.03;;;14.50;99.90;;;;;;6124425;29;20529;-79
2022/01/04 08:21:42;;;;;;;2.38;2.13;;;14.40;99.90;;;;;;6106253;29;20455;-79
2022/01/04 08:24:42;;;;;;;2.72;1.85;;;14.80;99.90;;;;;;6106619;29;20082;-80
2022/01/04 08:27:43;;;;;;;2.25;2.00;;;14.60;99.90;;;;;;6122381;29;20494;-77
2022/01/04 08:30:44;;;;;;;1.67;1.58;;;14.50;99.90;;;;;;6119087;29;20062;-77
2022/01/04 08:33:44;;;;;;;2.88;1.90;;;14.50;99.90;;;;;;6124463;29;20032;-79
2022/01/04 08:36:45;;;;;;;3.20;2.10;;;14.40;99.90;;;;;;6123257;29;20078;-79
2022/01/04 08:39:45;;;;;;;2.42;2.13;;;14.40;99.90;;;;;;6106651;29;20494;-79
2022/01/04 08:42:46;;;;;;;3.58;2.00;;;14.40;99.90;;;;;;6104528;29;20110;-79
2022/01/04 08:45:47;;;;;;;3.60;2.13;;;15.00;99.90;;;;;;6121421;29;20031;-80
2022/01/04 08:48:48;;;;;;;2.33;1.80;;;14.60;99.90;;;;;;6106377;29;20038;-80
2022/01/04 08:51:48;;;;;;;2.90;2.60;;;14.60;99.90;;;;;;6107281;29;20028;-80
2022/01/04 08:54:49;;;;;;;4.80;3.75;;;14.70;99.90;;;;;;6122662;29;20067;-79
2022/01/04 08:57:50;;;;;;;3.90;2.55;;;14.70;99.90;;;;;;6106047;29;20073;-78
2022/01/04 09:00:50;;;;;;;2.45;2.20;;;14.80;99.90;;;;;;6122622;29;20040;-81
2022/01/04 09:03:51;;;;;;;3.10;2.20;;;14.90;99.90;;;;;;6105961;29;20146;-80
2022/01/04 09:06:51;;;;;;;3.10;2.10;;;15.10;99.90;;;;;;6106426;29;20378;-80
2022/01/04 09:09:52;;;;;;;4.15;2.10;;;15.10;99.90;;;;;;6121710;29;20186;-82
2022/01/04 09:19:07;;;;;;;3.15;2.38;;;15.30;99.90;;;;;;6089809;29;20043;-79
2022/01/04 09:22:07;;;;;;;3.40;2.22;;;15.40;99.90;;;;;;6102811;29;20052;-80
2022/01/04 09:25:09;;;;;;;2.97;2.58;;;15.40;99.90;;;;;;6118417;29;20389;-80
2022/01/04 09:28:09;;;;;;;4.18;2.55;;;15.50;99.90;;;;;;6102804;29;20038;-79
2022/01/04 09:31:10;;;;;;;3.08;2.20;;;15.50;99.90;;;;;;6122621;29;20032;-79
2022/01/04 09:34:11;;;;;;;4.10;2.35;;;15.60;99.90;;;;;;6107199;29;20174;-78
2022/01/04 09:37:11;;;;;;;4.50;2.33;;;15.50;99.90;;;;;;6105675;29;20043;-78
2022/01/04 09:40:12;;;;;;;3.58;2.25;;;15.50;99.90;;;;;;6120369;29;20036;-81
2022/01/04 09:43:12;;;;;;;4.03;2.85;;;15.60;99.90;;;;;;6102717;29;20545;-81
2022/01/04 09:46:13;;;;;;;4.13;3.05;;;15.50;99.90;;;;;;6106261;29;20095;-81
2022/01/04 09:49:14;;;;;;;4.43;2.97;;;15.50;99.90;;;;;;6103867;29;20031;-82
2022/01/04 09:52:18;;;;;;;2.88;2.13;;;15.50;99.90;;;;;;6121570;29;20042;-81
2022/01/04 09:55:18;;;;;;;2.63;2.40;;;15.50;99.90;;;;;;6106304;29;20062;-81
2022/01/04 09:58:20;;;;;;;4.13;2.17;;;15.50;99.90;;;;;;6088700;29;20035;-80
2022/01/04 10:01:25;;;;;;;2.75;2.33;;;17.10;99.90;;;;;;6104078;29;20437;-82
2022/01/04 10:04:25;;;;;;;4.20;2.42;;;15.40;99.90;;;;;;6104572;29;20066;-81
2022/01/04 10:07:26;;;;;;;4.55;2.65;;;15.90;99.90;;;;;;6104961;29;20031;-81
2022/01/04 10:10:26;;;;;;;4.50;2.28;;;15.80;99.90;;;;;;6119683;29;20043;-83
2022/01/04 10:13:28;;;;;;;4.03;2.38;;;15.90;99.90;;;;;;6105224;29;20040;-81
2022/01/04 10:16:29;;;;;;;3.80;2.50;;;15.80;99.90;;;;;;6119438;29;20044;-81
2022/01/04 10:20:07;;;;;;;3.83;2.47;;;15.90;99.90;;;;;;6118157;29;20152;-80
2022/01/04 10:23:56;;;;;;;2.85;2.15;;;16.10;99.90;;;;;;6054472;29;20782;-82
2022/01/04 10:26:58;;;;;;;4.20;2.75;;;;;;;;;;6075674;29;20049;-81
2022/01/04 10:30:25;;;;;;;4.53;2.67;;;16.10;99.90;;;;;;6077777;29;20051;-84
2022/01/04 10:33:27;;;;;;;4.78;2.58;;;16.20;99.90;;;;;;6059838;29;20076;-81
2022/01/04 10:36:36;;;;;;;3.40;2.53;;;16.20;99.90;;;;;;6061798;29;20526;-82
2022/01/04 10:43:37;;;;;;;3.92;2.42;;;16.20;99.90;;;;;;6078397;29;20032;-81
2022/01/04 10:46:42;;;;;;;4.90;3.00;;;16.30;99.90;;;;;;6057255;29;20044;-80
2022/01/04 10:49:43;;;;;;;3.63;2.70;;;16.20;99.90;;;;;;6061905;29;20043;-85
2022/01/04 10:52:43;;;;;;;3.38;2.40;;;16.20;99.70;;;;;;6074494;29;20040;-81
2022/01/04 10:55:46;;;;;;;2.72;2.30;;;;;;;;;;6073092;29;20508;-81
2022/01/04 10:58:48;;;;;;;3.85;2.75;;;16.20;99.90;;;;;;6075943;29;20127;-82
2022/01/04 11:01:50;;;;;;;4.15;2.30;;;;;;;;;;6080611;29;20024;-81
2022/01/04 11:05:11;;;;;;;7.27;2.63;;;16.10;99.90;;;;;;6121152;29;20479;-82
2022/01/04 11:08:17;;;;;;;4.70;2.70;;;;;;;;;;6104754;29;20435;-82
2022/01/04 11:11:18;;;;;;;3.55;2.40;;;15.90;99.90;;;;;;6121003;29;20028;-84
2022/01/04 11:14:18;;;;;;;4.03;2.92;;;15.80;99.90;;;;;;6120243;29;20032;-84
2022/01/04 11:17:19;;;;;;;4.25;2.80;;;;;;;;;;6104919;29;20044;-85
2022/01/04 11:20:20;;;;;;;5.32;2.80;;;15.10;99.90;;;;;;6103853;29;20136;-84
2022/01/04 11:23:23;;;;;;;4.57;2.80;;;15.30;99.90;;;;;;6103951;29;20055;-82
2022/01/04 11:26:24;;;;;;;5.13;3.25;;;15.10;99.90;;;;;;6088101;29;20038;-81
2022/01/04 11:29:24;;;;;;;3.28;2.67;;;15.10;99.90;;;;;;6116485;29;20032;-82
2022/01/04 11:32:25;;;;;;;4.43;3.28;;;15.00;99.90;;;;;;6102761;29;20493;-81
2022/01/04 11:35:26;;;;;;;5.25;2.97;;;14.70;99.90;;;;;;6103144;29;20128;-79
2022/01/04 11:38:34;;;;;;;4.47;3.35;;;14.50;99.90;;;;;;6103262;29;20027;-80
2022/01/04 11:41:35;;;;;;;4.68;2.95;;;14.30;99.90;;;;;;6119390;29;20486;-81
2022/01/04 11:44:47;;;;;;;6.55;3.25;;;14.10;99.90;;;;;;6119683;29;20032;-80
2022/01/04 11:47:48;;;;;;;4.00;2.97;;;13.90;99.90;;;;;;6102882;29;20063;-83
2022/01/04 11:50:49;;;;;;;5.15;3.15;;;13.80;99.90;;;;;;6104414;29;20036;-83
2022/01/04 11:54:14;;;;;;;4.43;2.88;;;13.80;99.90;;;;;;6103181;29;20032;-81
2022/01/04 11:57:18;;;;;;;9.27;4.38;;;13.70;99.90;;;;;;6119241;29;20435;-82
2022/01/04 12:00:34;;;;;;;4.68;3.05;;;14.10;99.90;;;;;;6087664;29;20038;-81
2022/01/04 12:03:47;;;;;;;4.85;2.97;;;13.50;99.90;;;;;;6119944;29;20043;-81
2022/01/04 12:06:47;;;;;;;;;;;13.40;99.90;;;;;;6089952;29;20039;-83
2022/01/04 12:09:48;;;;;;;5.93;3.08;;;13.30;99.90;;;;;;6092341;29;20479;-80
2022/01/04 12:13:04;;;;;;;3.28;2.78;;;13.20;99.90;;;;;;6109478;29;20035;-82
2022/01/04 12:16:05;;;;;;;4.18;2.80;;;13.10;99.90;;;;;;6124735;29;20047;-81
2022/01/04 12:19:13;;;;;;;5.53;3.20;;;13.10;99.90;;;;;;6108450;29;20355;-82
2022/01/04 12:22:13;;;;;;;5.63;3.05;;;13.10;99.90;;;;;;6106636;29;20055;-81
2022/01/04 12:25:15;;;;;;;4.03;2.85;;;13.10;99.90;;;;;;6107008;29;20406;-80
2022/01/04 12:28:16;;;;;;;3.83;2.83;;;13.20;99.90;;;;;;6106694;29;20043;-79
2022/01/04 12:31:17;;;;;;;4.00;2.65;;;13.20;99.90;;;;;;6123299;29;20302;-85
2022/01/04 12:34:29;;;;;;;5.20;2.83;;;13.20;99.90;;;;;;6125354;29;20024;-85
2022/01/04 12:37:29;;;;;;;5.22;3.00;;;13.40;99.90;;;;;;6124323;29;20039;-83
2022/01/04 12:40:30;;;;;;;3.85;3.13;;;13.20;99.90;;;;;;6091392;29;20509;-83
2022/01/04 12:43:31;;;;;;;3.03;2.55;;;13.20;99.90;;;;;;6105571;29;20036;-81
2022/01/04 12:46:34;;;;;;;6.18;3.15;;;13.10;99.90;;;;;;6087744;29;20031;-81
2022/01/04 12:49:35;;;;;;;;;;;13.10;99.90;;;;;;6106994;29;20051;-81
2022/01/04 12:52:36;;;;;;;4.25;2.80;;;13.00;99.90;;;;;;6121167;29;19922;-83
2022/01/04 12:55:36;;;;;;;8.13;3.28;;;13.00;99.90;;;;;;6089904;29;20035;-85
2022/01/04 12:58:37;;;;;;;2.88;2.55;;;12.80;99.90;;;;;;6082720;29;20028;-82
2022/01/04 13:01:38;;;;;;;6.60;2.95;;;12.70;99.90;;;;;;6087510;29;20063;-81
2022/01/04 13:04:41;;;;;;;7.78;3.25;;;12.60;99.90;;;;;;6087116;29;20119;-84
2022/01/04 13:07:42;;;;;;;3.15;2.42;;;12.40;99.90;;;;;;6088908;29;20036;-81
2022/01/04 13:10:43;;;;;;;7.05;3.30;;;12.70;99.90;;;;;;6088336;29;20039;-81
2022/01/04 13:13:44;;;;;;;4.65;2.70;;;;;;;;;;6119876;29;20028;-81
2022/01/04 13:16:45;;;;;;;4.00;2.60;;;12.50;99.90;;;;;;6121209;29;20474;-80
2022/01/04 13:19:46;;;;;;;5.38;2.65;;;;;;;;;;6123010;29;20027;-80
2022/01/04 13:22:47;;;;;;;7.63;3.15;;;12.30;99.90;;;;;;6122101;29;20148;-81
2022/01/04 13:25:58;;;;;;;5.18;3.30;;;12.20;99.90;;;;;;6119988;29;20458;-82
2022/01/04 13:28:59;;;;;;;4.47;2.95;;;12.00;99.90;;;;;;6089308;29;20035;-82
2022/01/04 13:32:07;;;;;;;5.27;3.40;;;12.00;99.90;;;;;;6089679;29;20036;-83
2022/01/04 13:35:11;;;;;;;6.63;3.60;;;12.00;99.90;;;;;;6122393;29;20032;-81
2022/01/04 13:38:21;;;;;;;4.55;3.10;;;12.00;99.90;;;;;;6121938;29;20031;-80
2022/01/04 13:41:32;;;;;;;3.38;2.70;;;11.90;99.90;;;;;;6106538;29;20091;-82
2022/01/04 13:44:32;;;;;;;3.92;2.53;;;11.90;99.90;;;;;;6106435;29;20170;-83
2022/01/04 13:47:37;;;;;;;9.65;4.25;;;12.00;99.90;;;;;;6123308;29;20467;-83
2022/01/04 13:50:43;;;;;;;5.07;2.63;;;12.10;99.90;;;;;;6106982;29;20364;-83
2022/01/04 13:53:45;;;;;;;3.60;2.70;;;12.10;99.90;;;;;;6123120;29;20027;-83
2022/01/04 13:56:46;;;;;;;3.75;2.70;;;12.10;99.90;;;;;;6107237;29;20032;-82
2022/01/04 13:59:46;;;;;;;3.85;2.75;;;12.30;99.90;;;;;;6106690;29;20043;-84
2022/01/04 14:02:47;;;;;;;3.67;2.72;;;11.90;99.90;;;;;;6106738;29;20082;-85
2022/01/04 14:05:48;;;;;;;3.80;2.55;;;12.20;99.90;;;;;;6105972;29;20026;-83
2022/01/04 14:08:48;;;;;;;4.63;2.75;;;12.20;99.90;;;;;;6090915;29;20422;-82
2022/01/04 14:11:54;;;;;;;6.70;3.25;;;12.20;99.90;;;;;;6106003;29;20655;-82
2022/01/04 14:14:57;;;;;;;5.55;2.80;;;;;;;;;;6104243;29;20024;-83
2022/01/04 14:18:09;;;;;;;4.05;2.60;;;12.40;99.90;;;;;;6122596;29;20039;-82
2022/01/04 14:21:10;;;;;;;5.00;2.65;;;;;;;;;;6105356;29;20139;-82
2022/01/04 14:24:30;;;;;;;3.83;2.65;;;12.30;99.90;;;;;;6122425;29;20035;-81
2022/01/04 14:27:37;;;;;;;3.90;2.50;;;12.20;99.90;;;;;;6122934;29;20434;-82
2022/01/04 14:30:38;;;;;;;3.90;2.58;;;12.20;99.90;;;;;;6106658;29;20789;-82
2022/01/04 14:33:39;;;;;;;5.88;2.80;;;;;;;;;;6121861;29;20027;-82
2022/01/04 14:36:39;;;;;;;4.07;3.35;;;12.40;99.90;;;;;;6122527;29;20043;-81
2022/01/04 14:39:40;;;;;;;4.82;3.15;;;12.40;99.90;;;;;;6106141;29;20900;-81
2022/01/04 14:42:41;;;;;;;16.80;3.50;;;12.40;99.90;;;;;;6106175;29;20482;-83
2022/01/04 14:45:44;;;;;;;4.30;2.53;;;12.40;99.90;;;;;;6107027;29;20040;-81
2022/01/04 14:48:45;;;;;;;5.28;3.33;;;12.30;99.90;;;;;;6090765;29;20036;-83
2022/01/04 14:51:46;;;;;;;4.90;3.30;;;12.30;99.90;;;;;;6121016;29;20453;-83
2022/01/04 14:54:47;;;;;;;4.97;2.60;;;12.30;99.90;;;;;;6105897;29;20032;-84
2022/01/04 14:57:48;;;;;;;4.68;2.83;;;12.20;99.90;;;;;;6105001;29;20067;-84
2022/01/04 15:00:48;;;;;;;4.28;3.10;;;12.00;99.90;;;;;;6105522;29;20082;-84
2022/01/04 15:03:49;;;;;;;4.75;2.92;;;11.90;99.90;;;;;;6121495;29;20060;-82
2022/01/04 15:06:51;;;;;;;4.65;2.95;;;11.90;99.90;;;;;;6090141;29;20171;-83
2022/01/04 15:09:52;;;;;;;5.53;3.28;;;14.00;99.90;;;;;;6105164;29;20035;-82
2022/01/04 15:12:53;;;;;;;5.90;2.95;;;11.80;99.90;;;;;;6104572;29;20570;-82
2022/01/04 15:15:54;;;;;;;6.35;3.20;;;11.70;99.90;;;;;;6104804;29;20046;-83
2022/01/04 15:18:55;;;;;;;4.68;3.20;;;11.70;99.90;;;;;;6104930;29;20375;-83
2022/01/04 15:21:55;;;;;;;6.00;3.10;;;12.10;99.90;;;;;;6105312;29;20060;-82
2022/01/04 15:24:56;;;;;;;10.18;4.65;;;11.80;99.90;;;;;;6120836;29;20031;-82
2022/01/04 15:27:57;;;;;;;9.10;4.35;;;11.80;99.90;;;;;;6105467;29;20079;-86
2022/01/04 15:30:57;;;;;;;8.00;3.50;;;11.80;99.90;;;;;;6121019;29;20445;-83
2022/01/04 15:33:58;;;;;;;7.15;3.30;;;11.70;99.90;;;;;;6105355;29;20102;-82
2022/01/04 15:36:59;;;;;;;8.25;3.85;;;11.60;99.90;;;;;;6120953;29;20483;-83
2022/01/04 15:39:59;;;;;;;8.50;3.50;;;11.70;99.90;;;;;;6108789;29;20024;-84
2022/01/04 15:43:00;;;;;;;4.75;3.13;;;11.70;99.90;;;;;;6125391;29;20036;-82
2022/01/04 15:46:01;;;;;;;5.90;3.75;;;;;;;;;;6109820;29;20042;-84
2022/01/04 15:49:02;;;;;;;5.97;3.20;;;11.70;99.90;;;;;;6127417;29;20036;-83
2022/01/04 15:52:03;;;;;;;4.57;3.25;;;11.50;99.90;;;;;;6109198;29;20123;-83
2022/01/04 15:55:05;;;;;;;7.22;3.15;;;11.60;99.90;;;;;;6125890;29;20040;-81
2022/01/04 15:58:06;;;;;;;6.88;3.83;;;11.50;99.90;;;;;;6124415;29;20048;-84
2022/01/04 16:01:07;;;;;;;5.70;3.55;;;11.50;99.90;;;;;;6088005;29;20039;-82
2022/01/04 16:04:07;;;;;;;4.93;3.25;;;11.50;99.90;;;;;;6108171;29;20032;-81
2022/01/04 16:07:08;;;;;;;15.10;10.20;;;11.30;99.90;;;;;;6125111;29;20036;-82